Time;durP1;ratioP1;P1;durP2;ratioP2;P2;SDS_P1;SDS_P2;PMS_P1;PMS_P2;Temp;Humidity;BMP_temperature;BMP_pressure;BME280_temperature;BME280_humidity;BME280_pressure;Samples;Min_cycle;Max_cycle;Signal;HPM_P1;HPM_P2
2023/02/07 00:02:20;;;;;;;12.63;7.10;;;;;;;1.46;100.00;100153.41;4963598;28;20815;-64
2023/02/07 00:04:46;;;;;;;12.10;7.10;;;;;;;1.48;100.00;100179.88;4975632;28;20088;-63
2023/02/07 00:07:11;;;;;;;12.48;7.57;;;;;;;1.50;100.00;100186.63;4978292;28;20482;-63
2023/02/07 00:09:37;;;;;;;11.55;7.55;;;;;;;1.37;100.00;100182.78;4979894;28;20045;-64
2023/02/07 00:12:03;;;;;;;13.73;7.97;;;;;;;1.43;100.00;100195.38;4967913;28;20180;-64
2023/02/07 00:14:29;;;;;;;12.35;7.80;;;;;;;1.45;100.00;100203.03;4963683;28;20053;-68
2023/02/07 00:16:54;;;;;;;14.07;7.10;;;;;;;1.43;100.00;100204.81;4978300;28;20022;-66
2023/02/07 00:19:19;;;;;;;14.73;7.55;;;;;;;1.36;100.00;100198.19;4977512;28;20034;-65
2023/02/07 00:21:45;;;;;;;11.40;7.93;;;;;;;1.47;100.00;100207.22;4981114;28;20378;-63
2023/02/07 00:24:10;;;;;;;13.95;7.75;;;;;;;1.48;100.00;100208.91;4966865;28;20030;-65
2023/02/07 00:26:37;;;;;;;15.50;7.80;;;;;;;1.30;100.00;100168.47;4966998;28;20034;-64
2023/02/07 00:29:03;;;;;;;11.90;6.72;;;;;;;1.39;100.00;100198.06;4976677;28;20031;-64
2023/02/07 00:31:31;;;;;;;11.30;6.85;;;;;;;1.43;100.00;100215.88;4968990;28;20038;-63
2023/02/07 00:33:59;;;;;;;12.35;6.90;;;;;;;1.43;100.00;100228.72;4978528;28;20026;-65
2023/02/07 00:36:26;;;;;;;12.88;7.28;;;;;;;1.00;100.00;100157.41;4983667;28;20026;-65
2023/02/07 00:38:55;;;;;;;12.23;6.80;;;;;;;1.45;100.00;100226.94;4973299;28;20109;-65
2023/02/07 00:41:21;;;;;;;11.80;7.30;;;;;;;1.35;100.00;100225.53;4965647;28;20069;-67
2023/02/07 00:43:46;;;;;;;10.95;6.90;;;;;;;1.41;100.00;100234.78;4974467;28;20027;-67
2023/02/07 00:46:12;;;;;;;13.68;6.78;;;;;;;1.44;100.00;100239.78;4980022;28;20065;-65
2023/02/07 00:48:40;;;;;;;11.25;7.43;;;;;;;1.41;100.00;100245.84;4981766;28;20027;-65
2023/02/07 00:51:06;;;;;;;11.00;7.07;;;;;;;1.51;100.00;100257.50;4983827;28;20061;-66
2023/02/07 00:53:32;;;;;;;15.05;7.15;;;;;;;1.46;100.00;100256.81;4963130;28;20066;-65
2023/02/07 00:55:58;;;;;;;12.80;7.45;;;;;;;1.51;100.00;100269.47;4981063;28;20095;-66
2023/02/07 00:58:24;;;;;;;12.27;7.45;;;;;;;1.58;100.00;100280.41;4980532;28;20037;-64
2023/02/07 01:00:49;;;;;;;10.95;6.78;;;;;;;1.50;100.00;100273.78;4967558;28;20092;-63
2023/02/07 01:03:15;;;;;;;13.40;7.60;;;;;;;1.60;100.00;100286.31;4978269;28;20030;-65
2023/02/07 01:05:41;;;;;;;12.65;7.38;;;;;;;1.52;100.00;100278.88;4972711;28;20030;-64
2023/02/07 01:08:07;;;;;;;11.38;7.28;;;;;;;1.66;100.00;100294.66;4967866;28;20595;-66
2023/02/07 01:10:32;;;;;;;12.32;7.05;;;;;;;1.60;100.00;100287.16;4983497;28;20073;-64
2023/02/07 01:12:58;;;;;;;12.07;7.15;;;;;;;1.59;100.00;100279.50;4975745;28;20085;-63
2023/02/07 01:15:24;;;;;;;11.55;7.53;;;;;;;1.56;100.00;100280.44;4988196;28;20042;-64
2023/02/07 01:17:49;;;;;;;17.67;7.75;;;;;;;1.62;98.80;100282.81;4986845;28;20029;-65
2023/02/07 01:20:15;;;;;;;13.98;7.38;;;;;;;1.69;98.62;100286.84;4966694;28;20154;-64
2023/02/07 01:22:40;;;;;;;10.93;7.05;;;;;;;1.49;99.85;100251.56;4981829;28;20022;-63
2023/02/07 01:25:06;;;;;;;12.73;8.25;;;;;;;1.84;99.76;100294.97;4976742;28;20145;-64
2023/02/07 01:27:33;;;;;;;13.93;7.45;;;;;;;1.78;99.87;100295.16;4984822;28;20035;-63
2023/02/07 01:29:59;;;;;;;15.57;8.23;;;;;;;1.77;100.00;100304.59;4982355;28;20740;-63
2023/02/07 01:32:24;;;;;;;11.27;7.53;;;;;;;1.80;99.49;100296.78;4966061;28;20038;-65
2023/02/07 01:34:49;;;;;;;13.13;8.00;;;;;;;1.80;100.00;100309.63;4982563;28;20034;-64
2023/02/07 01:37:15;;;;;;;12.98;7.03;;;;;;;1.89;99.71;100313.63;4974336;28;20027;-64
2023/02/07 01:39:40;;;;;;;12.82;7.63;;;;;;;1.81;100.00;100301.03;4983976;28;21925;-64
2023/02/07 01:42:06;;;;;;;10.80;7.55;;;;;;;1.85;100.00;100314.63;4981345;28;20041;-63
2023/02/07 01:44:31;;;;;;;13.43;7.75;;;;;;;1.85;100.00;100324.88;4965577;28;20626;-64
2023/02/07 01:46:56;;;;;;;11.90;7.57;;;;;;;1.89;99.83;100313.63;4984345;28;20029;-64
2023/02/07 01:49:29;;;;;;;12.85;8.10;;;;;;;1.66;96.65;100312.63;4978545;28;20034;-62
2023/02/07 01:51:59;;;;;;;13.65;7.25;;;;;;;1.21;97.67;100266.13;4983583;28;20034;-65
2023/02/07 01:54:24;;;;;;;;;;;;;;;1.39;96.87;100319.41;4964181;28;20544;-65
2023/02/07 01:56:54;;;;;;;11.50;7.00;;;;;;;1.34;97.99;100313.56;4965407;28;19925;-63
2023/02/07 01:59:19;;;;;;;11.90;7.47;;;;;;;1.44;100.00;100321.81;4982313;28;20488;-62
2023/02/07 02:01:46;;;;;;;12.27;8.18;;;;;;;1.24;100.00;100268.56;4963941;28;20041;-62
2023/02/07 02:04:11;;;;;;;12.90;8.13;;;;;;;1.24;99.63;100269.44;4960620;28;20129;-64
2023/02/07 02:06:38;;;;;;;12.30;7.47;;;;;;;1.52;99.29;100317.31;4984473;28;20117;-63
2023/02/07 02:09:09;;;;;;;10.60;7.50;;;;;;;1.34;97.63;100283.66;4964124;28;20650;-62
2023/02/07 02:11:35;;;;;;;13.65;8.02;;;;;;;1.52;98.72;100338.66;4968673;28;20034;-64
2023/02/07 02:14:07;;;;;;;12.15;8.15;;;;;;;1.54;100.00;100344.56;4982090;28;20037;-64
2023/02/07 02:16:41;;;;;;;13.68;7.28;;;;;;;1.66;100.00;100345.97;4977873;28;20089;-63
2023/02/07 02:19:22;;;;;;;12.30;7.10;;;;;;;1.69;99.23;100345.00;4979723;28;20065;-62
2023/02/07 02:22:12;;;;;;;12.13;7.35;;;;;;;1.68;99.53;100344.19;4986865;28;20826;-65
2023/02/07 02:24:56;;;;;;;14.35;7.93;;;;;;;1.69;100.00;100348.41;4977970;28;20042;-62
2023/02/07 02:27:36;;;;;;;13.65;8.10;;;;;;;1.61;100.00;100337.56;4980864;28;20442;-65
2023/02/07 02:30:14;;;;;;;15.68;8.70;;;;;;;1.29;100.00;100279.53;4983523;28;20064;-61
2023/02/07 02:32:58;;;;;;;12.02;7.55;;;;;;;1.67;100.00;100333.97;4975412;28;20130;-65
2023/02/07 02:35:56;;;;;;;12.90;8.38;;;;;;;1.69;100.00;100334.75;4981945;28;20524;-65
2023/02/07 02:38:44;;;;;;;13.57;8.27;;;;;;;1.72;100.00;100321.84;4979434;28;20459;-64
2023/02/07 02:41:20;;;;;;;12.23;7.93;;;;;;;1.73;100.00;100313.25;4976836;28;20100;-63
2023/02/07 02:43:53;;;;;;;11.93;7.85;;;;;;;1.86;100.00;100319.72;4981353;28;20034;-61
2023/02/07 02:46:21;;;;;;;15.23;8.23;;;;;;;1.85;100.00;100309.50;4963033;28;20045;-68
2023/02/07 02:48:47;;;;;;;13.07;7.97;;;;;;;1.84;100.00;100305.22;4976815;28;20030;-62
2023/02/07 02:51:13;;;;;;;15.13;8.63;;;;;;;1.97;100.00;100321.06;4977723;28;20046;-65
2023/02/07 02:53:38;;;;;;;14.68;8.55;;;;;;;2.01;100.00;100320.09;4994248;28;20065;-63
2023/02/07 02:56:09;;;;;;;14.43;8.32;;;;;;;2.02;100.00;100320.03;4980478;28;20096;-62
2023/02/07 02:59:20;;;;;;;12.45;8.13;;;;;;;1.91;100.00;100322.94;4978885;28;20034;-63
2023/02/07 03:02:13;;;;;;;13.38;8.20;;;;;;;1.88;100.00;100323.06;4960139;28;20045;-62
2023/02/07 03:05:06;;;;;;;16.52;8.45;;;;;;;1.88;100.00;100319.63;4973015;28;20469;-65
2023/02/07 03:07:46;;;;;;;12.20;8.32;;;;;;;1.91;100.00;100314.41;4967072;28;20121;-64
2023/02/07 03:10:35;;;;;;;13.00;8.35;;;;;;;1.81;100.00;100316.44;4980159;28;20042;-62
2023/02/07 03:13:05;;;;;;;13.43;8.00;;;;;;;1.90;100.00;100313.59;4978683;28;20040;-63
2023/02/07 03:16:03;;;;;;;15.10;8.50;;;;;;;1.92;100.00;100308.41;4985003;28;20034;-63
2023/02/07 03:18:47;;;;;;;13.88;7.80;;;;;;;1.62;100.00;100258.91;4977596;28;20085;-61
2023/02/07 03:21:31;;;;;;;13.57;8.25;;;;;;;1.80;100.00;100311.34;4965269;28;20373;-62
2023/02/07 03:24:00;;;;;;;11.75;8.10;;;;;;;1.61;100.00;100300.81;4968711;28;20394;-65
2023/02/07 03:26:27;;;;;;;12.05;7.80;;;;;;;1.53;100.00;100311.28;4963086;28;20031;-62
2023/02/07 03:28:54;;;;;;;10.68;7.50;;;;;;;1.46;97.64;100310.66;4971038;28;20663;-64
2023/02/07 03:31:22;;;;;;;11.98;7.95;;;;;;;1.11;96.41;100263.84;4972485;28;20118;-63
2023/02/07 03:33:52;;;;;;;13.38;7.85;;;;;;;1.32;96.58;100320.47;4979980;28;20654;-62
2023/02/07 03:36:22;;;;;;;10.80;7.22;;;;;;;1.31;95.18;100317.06;4977859;28;20065;-65
2023/02/07 03:38:47;;;;;;;11.40;7.53;;;;;;;1.21;94.98;100318.22;4979542;28;20236;-63
2023/02/07 03:41:34;;;;;;;11.20;7.63;;;;;;;1.34;96.00;100324.66;4961424;28;20073;-62
2023/02/07 03:44:05;;;;;;;14.98;8.45;;;;;;;1.25;97.42;100330.03;4978995;28;20027;-63
2023/02/07 03:46:34;;;;;;;14.32;8.10;;;;;;;0.97;97.48;100278.75;4964864;28;20839;-66
2023/02/07 03:49:00;;;;;;;12.10;7.83;;;;;;;1.22;100.00;100331.84;4978638;28;20066;-63
2023/02/07 03:51:25;;;;;;;13.35;8.02;;;;;;;1.23;100.00;100330.97;4965766;28;20367;-63
2023/02/07 03:53:50;;;;;;;14.88;7.97;;;;;;;0.93;100.00;100278.00;4965399;28;20049;-62
2023/02/07 03:56:16;;;;;;;13.80;8.43;;;;;;;1.31;99.98;100329.03;4979022;28;20755;-63
2023/02/07 03:58:41;;;;;;;13.60;8.30;;;;;;;1.42;100.00;100336.41;4974751;28;20041;-63
2023/02/07 04:01:07;;;;;;;12.68;8.02;;;;;;;1.38;97.84;100330.53;4967422;28;20753;-63
2023/02/07 04:03:32;;;;;;;13.10;8.10;;;;;;;1.30;98.75;100337.63;4983380;28;20030;-64
2023/02/07 04:05:58;;;;;;;11.35;7.32;;;;;;;1.42;96.70;100329.56;4968093;28;20034;-62
2023/02/07 04:08:23;;;;;;;13.27;8.07;;;;;;;1.50;98.54;100332.75;4987637;28;20034;-61
2023/02/07 04:10:59;;;;;;;12.52;7.57;;;;;;;1.01;97.20;100272.66;4978897;28;20030;-63
2023/02/07 04:13:25;;;;;;;11.70;7.70;;;;;;;1.34;97.94;100339.19;4978776;28;20035;-64
2023/02/07 04:15:50;;;;;;;13.18;7.47;;;;;;;1.32;96.98;100326.41;4979755;28;20041;-63
2023/02/07 04:18:16;;;;;;;14.93;8.52;;;;;;;1.37;95.25;100334.00;4968396;28;20031;-64
2023/02/07 04:20:41;;;;;;;13.40;7.65;;;;;;;1.06;96.55;100281.06;4960540;28;20042;-63
2023/02/07 04:23:07;;;;;;;12.63;7.53;;;;;;;1.50;96.61;100327.63;4968397;28;20121;-62
2023/02/07 04:25:32;;;;;;;12.38;6.88;;;;;;;1.62;97.46;100323.00;4982068;28;21019;-64
2023/02/07 04:27:58;;;;;;;12.25;8.10;;;;;;;1.67;99.61;100331.41;4980844;28;20039;-63
2023/02/07 04:30:23;;;;;;;14.05;8.15;;;;;;;1.63;98.41;100327.25;4983671;28;20125;-62
2023/02/07 04:32:48;;;;;;;11.10;7.53;;;;;;;1.66;97.97;100333.13;4982424;28;20431;-64
2023/02/07 04:35:14;;;;;;;10.93;7.80;;;;;;;1.69;98.50;100332.19;4979170;28;20701;-64
2023/02/07 04:37:39;;;;;;;13.07;8.20;;;;;;;1.68;97.58;100336.50;4969328;28;20034;-65
2023/02/07 04:40:05;;;;;;;13.02;7.95;;;;;;;1.71;97.89;100346.63;4965977;28;20054;-61
2023/02/07 04:42:31;;;;;;;12.15;7.60;;;;;;;1.69;98.64;100350.97;4968615;28;20394;-64
2023/02/07 04:44:56;;;;;;;11.80;7.60;;;;;;;1.64;99.03;100355.44;4966764;28;20030;-61
2023/02/07 04:47:22;;;;;;;12.68;7.72;;;;;;;1.29;98.86;100321.38;4982655;28;20462;-66
2023/02/07 04:49:47;;;;;;;11.65;7.75;;;;;;;1.08;98.65;100309.19;4984374;28;20046;-63
2023/02/07 04:52:13;;;;;;;12.35;7.78;;;;;;;0.99;97.56;100305.16;4983646;28;20038;-62
2023/02/07 04:54:38;;;;;;;12.85;7.82;;;;;;;1.38;97.21;100368.16;4992068;28;20045;-67
2023/02/07 04:57:04;;;;;;;12.90;8.23;;;;;;;0.98;96.57;100310.31;4965509;28;20041;-64
2023/02/07 04:59:29;;;;;;;10.98;7.35;;;;;;;1.27;97.62;100381.25;4971437;28;20044;-64
2023/02/07 05:01:55;;;;;;;14.40;8.18;;;;;;;0.76;99.08;100382.59;4990290;28;20037;-61
2023/02/07 05:04:21;;;;;;;13.48;8.40;;;;;;;0.72;99.92;100386.97;4967651;28;20054;-65
2023/02/07 05:06:46;;;;;;;14.00;8.38;;;;;;;0.79;100.00;100379.97;4983008;28;20493;-64
2023/02/07 05:09:12;;;;;;;11.65;7.75;;;;;;;0.91;100.00;100379.66;4975293;28;20035;-62
2023/02/07 05:11:37;;;;;;;11.57;7.68;;;;;;;1.15;100.00;100382.44;4979393;28;20054;-62
2023/02/07 05:14:03;;;;;;;12.65;7.97;;;;;;;0.71;100.00;100339.22;4967452;28;20031;-63
2023/02/07 05:16:28;;;;;;;11.77;7.25;;;;;;;0.85;100.00;100389.22;4963615;28;20693;-63
2023/02/07 05:18:54;;;;;;;12.60;7.80;;;;;;;0.88;100.00;100394.28;4984615;28;20041;-62
2023/02/07 05:21:20;;;;;;;12.88;8.43;;;;;;;0.56;99.97;100357.50;4967543;28;20912;-63
2023/02/07 05:23:45;;;;;;;13.38;8.32;;;;;;;0.55;100.00;100364.34;4962157;28;20539;-64
2023/02/07 05:26:11;;;;;;;14.32;8.70;;;;;;;0.70;100.00;100398.13;4967813;28;20040;-61
2023/02/07 05:28:36;;;;;;;16.42;9.93;;;;;;;0.68;100.00;100400.72;4980557;28;20117;-62
2023/02/07 05:31:02;;;;;;;16.95;11.25;;;;;;;0.74;100.00;100405.69;4980914;28;20038;-62
2023/02/07 05:33:27;;;;;;;19.63;12.57;;;;;;;0.67;100.00;100401.59;4965896;28;20132;-62
2023/02/07 05:35:52;;;;;;;25.90;16.42;;;;;;;0.70;100.00;100416.88;4979991;28;20081;-61
2023/02/07 05:38:19;;;;;;;27.42;19.80;;;;;;;0.66;100.00;100419.56;4957377;28;20654;-61
2023/02/07 05:40:45;;;;;;;24.40;16.67;;;;;;;0.69;100.00;100430.56;4980766;28;20078;-63
2023/02/07 05:43:11;;;;;;;18.42;12.40;;;;;;;0.35;99.88;100387.03;4976777;28;20066;-62
2023/02/07 05:45:37;;;;;;;18.25;12.88;;;;;;;0.61;100.00;100429.09;4969493;28;20030;-61
2023/02/07 05:48:02;;;;;;;20.25;12.77;;;;;;;0.35;100.00;100384.47;4963144;28;20444;-64
2023/02/07 05:50:28;;;;;;;17.08;12.07;;;;;;;0.59;100.00;100431.69;4953431;28;20957;-61
2023/02/07 05:52:53;;;;;;;17.42;11.85;;;;;;;0.66;100.00;100440.06;4974687;28;20034;-62
2023/02/07 05:55:19;;;;;;;18.73;11.05;;;;;;;0.60;100.00;100437.63;4960872;28;20045;-61
2023/02/07 05:57:45;;;;;;;17.67;10.57;;;;;;;0.40;100.00;100446.59;4959076;28;20058;-63
2023/02/07 06:00:13;;;;;;;14.48;9.30;;;;;;;0.19;100.00;100443.66;4979954;28;20050;-63
2023/02/07 06:02:39;;;;;;;14.85;8.63;;;;;;;0.27;100.00;100466.53;4977100;28;20044;-62
2023/02/07 06:05:06;;;;;;;16.40;10.05;;;;;;;0.33;100.00;100471.53;4986769;28;20121;-61
2023/02/07 06:07:31;;;;;;;16.25;9.65;;;;;;;0.27;100.00;100463.13;4962017;28;20125;-61
2023/02/07 06:09:57;;;;;;;14.55;9.15;;;;;;;0.31;100.00;100472.41;4967792;28;20129;-61
2023/02/07 06:12:22;;;;;;;18.27;9.82;;;;;;;0.27;100.00;100460.56;4982932;28;20034;-63
2023/02/07 06:14:47;;;;;;;18.20;10.05;;;;;;;0.28;100.00;100460.53;4982019;28;20030;-61
2023/02/07 06:17:13;;;;;;;16.67;9.63;;;;;;;0.33;100.00;100475.81;4974611;28;20030;-61
2023/02/07 06:19:38;;;;;;;16.02;9.48;;;;;;;0.36;100.00;100476.53;4968755;28;20027;-61
2023/02/07 06:22:04;;;;;;;16.23;9.25;;;;;;;0.30;100.00;100475.88;4960509;28;20048;-63
2023/02/07 06:24:29;;;;;;;14.40;9.27;;;;;;;0.27;100.00;100481.88;4961495;28;20035;-64
2023/02/07 06:26:55;;;;;;;15.10;9.35;;;;;;;0.15;100.00;100477.88;4979311;28;20066;-61
2023/02/07 06:29:20;;;;;;;14.27;8.88;;;;;;;0.16;100.00;100478.72;4976780;28;20042;-62
2023/02/07 06:31:46;;;;;;;16.30;8.73;;;;;;;0.28;100.00;100488.69;4961024;28;20788;-63
2023/02/07 06:34:11;;;;;;;15.57;9.43;;;;;;;0.23;100.00;100487.94;4962274;28;20034;-63
2023/02/07 06:36:37;;;;;;;15.32;9.15;;;;;;;0.25;99.83;100495.59;4965025;28;20045;-62
2023/02/07 06:39:03;;;;;;;17.83;9.75;;;;;;;0.24;100.00;100496.44;4961111;28;20331;-67
2023/02/07 06:41:28;;;;;;;17.25;9.63;;;;;;;0.26;100.00;100495.56;4965022;28;20716;-62
2023/02/07 06:43:53;;;;;;;20.38;10.77;;;;;;;0.23;100.00;100510.13;4984477;28;20096;-62
2023/02/07 06:46:19;;;;;;;18.58;10.27;;;;;;;0.17;100.00;100519.63;4981554;28;20666;-65
2023/02/07 06:48:44;;;;;;;18.20;10.18;;;;;;;0.17;98.92;100511.09;4964239;28;20085;-65
2023/02/07 06:51:10;;;;;;;14.88;9.63;;;;;;;0.21;99.35;100517.00;4962509;28;20113;-67
2023/02/07 06:53:35;;;;;;;17.30;10.90;;;;;;;0.27;98.82;100527.09;4957053;28;20034;-63
2023/02/07 06:56:01;;;;;;;20.85;13.00;;;;;;;0.15;99.27;100531.59;4979130;28;20057;-64
2023/02/07 06:58:26;;;;;;;19.67;12.90;;;;;;;0.15;99.09;100520.53;4980531;28;20505;-63
2023/02/07 07:00:52;;;;;;;27.75;16.55;;;;;;;0.12;98.92;100512.91;4969770;28;20117;-62
2023/02/07 07:03:17;;;;;;;24.35;15.02;;;;;;;0.14;99.49;100523.97;4960518;28;20121;-62
2023/02/07 07:05:43;;;;;;;23.70;14.15;;;;;;;0.04;98.40;100518.19;4978451;28;20402;-64
2023/02/07 07:08:10;;;;;;;21.65;13.20;;;;;;;0.15;98.59;100538.44;4968227;28;20034;-64
2023/02/07 07:10:36;;;;;;;26.33;16.60;;;;;;;0.09;99.20;100539.41;4974157;28;20508;-62
2023/02/07 07:13:01;;;;;;;30.13;19.38;;;;;;;0.13;99.11;100533.34;4980172;28;20026;-62
2023/02/07 07:15:27;;;;;;;26.90;18.55;;;;;;;-0.10;98.61;100492.88;4981893;28;20038;-63
2023/02/07 07:17:52;;;;;;;25.40;16.70;;;;;;;0.25;98.83;100544.19;4960415;28;20851;-63
2023/02/07 07:20:18;;;;;;;20.10;14.10;;;;;;;0.19;99.00;100537.50;4960568;28;20066;-62
2023/02/07 07:22:44;;;;;;;20.35;13.13;;;;;;;0.12;98.57;100541.88;4977020;28;20042;-64
2023/02/07 07:25:09;;;;;;;22.85;12.10;;;;;;;0.14;98.64;100552.09;4980755;28;20062;-65
2023/02/07 07:27:35;;;;;;;16.75;11.07;;;;;;;-0.18;98.03;100482.00;4965707;28;20089;-62
2023/02/07 07:30:00;;;;;;;17.83;10.70;;;;;;;0.16;98.39;100540.09;4977671;28;20149;-64
2023/02/07 07:32:26;;;;;;;16.85;9.13;;;;;;;0.22;98.22;100551.94;4982357;28;20601;-63
2023/02/07 07:34:52;;;;;;;15.20;9.50;;;;;;;0.17;98.55;100544.38;4984422;28;20085;-63
2023/02/07 07:37:18;;;;;;;16.48;9.18;;;;;;;0.16;98.66;100552.91;4975102;28;20118;-62
2023/02/07 07:39:43;;;;;;;14.55;9.98;;;;;;;0.10;98.25;100545.38;4981615;28;20037;-63
2023/02/07 07:42:09;;;;;;;14.95;9.32;;;;;;;0.09;98.33;100547.09;4979714;28;20030;-63
2023/02/07 07:44:34;;;;;;;14.23;9.02;;;;;;;0.05;98.54;100545.44;4978181;28;20113;-62
2023/02/07 07:47:00;;;;;;;14.00;9.18;;;;;;;0.10;97.35;100564.09;4987535;28;20033;-62
2023/02/07 07:49:25;;;;;;;20.38;10.25;;;;;;;-0.20;97.56;100511.88;4962188;28;20101;-63
2023/02/07 07:51:51;;;;;;;16.33;10.05;;;;;;;0.06;98.21;100565.03;4979731;28;20075;-63
2023/02/07 07:54:16;;;;;;;16.25;10.73;;;;;;;0.12;99.47;100558.97;4985804;28;20424;-64
2023/02/07 07:56:42;;;;;;;16.92;11.18;;;;;;;0.10;98.00;100553.03;4984501;28;20117;-62
2023/02/07 07:59:07;;;;;;;16.92;9.40;;;;;;;0.11;98.26;100558.13;4978569;28;20023;-62
2023/02/07 08:01:32;;;;;;;15.18;9.05;;;;;;;0.09;98.95;100557.31;4963223;28;20027;-64
2023/02/07 08:03:58;;;;;;;14.82;9.63;;;;;;;0.03;99.16;100552.31;4975492;28;20058;-64
2023/02/07 08:06:23;;;;;;;17.38;10.55;;;;;;;0.11;98.55;100547.91;4982083;28;20034;-62
2023/02/07 08:08:49;;;;;;;15.80;9.93;;;;;;;0.15;99.29;100554.63;4982389;28;20045;-62
2023/02/07 08:11:14;;;;;;;17.75;11.07;;;;;;;0.07;99.15;100555.66;4986597;28;20018;-63
2023/02/07 08:13:39;;;;;;;18.95;10.38;;;;;;;0.14;100.00;100560.59;4977042;28;20038;-63
2023/02/07 08:16:07;;;;;;;17.20;10.32;;;;;;;0.08;100.00;100547.94;4978955;28;20034;-62
2023/02/07 08:18:34;;;;;;;17.75;10.38;;;;;;;0.15;99.71;100561.47;4982635;28;20062;-62
2023/02/07 08:21:00;;;;;;;18.63;11.10;;;;;;;0.13;99.72;100553.81;4974659;28;20636;-62
2023/02/07 08:23:25;;;;;;;17.50;10.98;;;;;;;0.11;100.00;100553.00;4968589;28;20048;-63
2023/02/07 08:25:50;;;;;;;16.92;11.07;;;;;;;0.16;100.00;100558.03;4985499;28;20069;-62
2023/02/07 08:28:17;;;;;;;18.40;11.38;;;;;;;-0.14;100.00;100514.28;4968858;28;20041;-61
2023/02/07 08:30:42;;;;;;;20.38;12.40;;;;;;;0.06;100.00;100559.09;4980470;28;20022;-62
2023/02/07 08:33:08;;;;;;;16.77;11.20;;;;;;;0.12;100.00;100559.78;4977276;28;20046;-62
2023/02/07 08:35:33;;;;;;;20.73;11.80;;;;;;;-0.11;100.00;100508.25;4967139;28;20440;-63
2023/02/07 08:37:59;;;;;;;20.33;11.77;;;;;;;0.14;100.00;100552.09;4956250;28;20690;-63
2023/02/07 08:40:25;;;;;;;20.00;11.68;;;;;;;0.19;100.00;100555.41;4976626;28;20061;-62
2023/02/07 08:42:51;;;;;;;17.88;11.98;;;;;;;0.18;100.00;100541.78;4983233;28;20042;-62
2023/02/07 08:45:17;;;;;;;21.27;12.27;;;;;;;0.27;100.00;100545.84;4984808;28;20038;-62
2023/02/07 08:47:45;;;;;;;21.52;12.15;;;;;;;0.22;100.00;100541.69;4967226;28;20062;-62
2023/02/07 08:50:13;;;;;;;20.73;11.73;;;;;;;0.17;100.00;100527.28;4980106;28;20774;-63
2023/02/07 08:52:38;;;;;;;18.63;11.32;;;;;;;0.29;100.00;100530.47;4981739;28;20466;-63
2023/02/07 08:55:04;;;;;;;17.10;11.60;;;;;;;0.32;100.00;100518.44;4981864;28;20041;-63
2023/02/07 08:57:29;;;;;;;17.73;11.73;;;;;;;0.07;100.00;100464.41;4978335;28;20045;-62
2023/02/07 08:59:55;;;;;;;19.48;12.05;;;;;;;0.40;100.00;100510.59;4964235;28;20023;-64
2023/02/07 09:02:20;;;;;;;22.45;12.90;;;;;;;0.41;100.00;100507.16;4980234;28;20042;-66
2023/02/07 09:04:46;;;;;;;18.77;12.27;;;;;;;0.56;100.00;100514.50;4978104;28;20027;-62
2023/02/07 09:07:12;;;;;;;19.15;11.38;;;;;;;0.59;100.00;100512.78;4965051;28;20174;-62
2023/02/07 09:09:37;;;;;;;22.13;12.07;;;;;;;0.64;100.00;100504.09;4967603;28;20121;-62
2023/02/07 09:12:03;;;;;;;17.58;11.60;;;;;;;0.60;99.96;100488.84;4965407;28;20496;-63
2023/02/07 09:14:29;;;;;;;17.38;10.95;;;;;;;0.66;100.00;100486.16;4988986;28;20029;-62
2023/02/07 09:16:54;;;;;;;16.23;10.55;;;;;;;0.66;100.00;100486.16;4980953;28;20030;-62
2023/02/07 09:19:20;;;;;;;20.88;11.52;;;;;;;0.48;100.00;100443.91;4989372;28;20817;-61
2023/02/07 09:21:45;;;;;;;18.17;10.50;;;;;;;0.46;100.00;100430.28;4967543;28;20030;-62
2023/02/07 09:24:10;;;;;;;17.05;10.00;;;;;;;0.81;99.46;100479.81;4982660;28;20046;-61
2023/02/07 09:26:37;;;;;;;19.15;10.85;;;;;;;0.79;100.00;100467.03;4984195;28;20034;-60
2023/02/07 09:29:04;;;;;;;16.23;10.10;;;;;;;0.85;99.82;100471.16;4974948;28;20505;-62
2023/02/07 09:31:30;;;;;;;14.80;10.32;;;;;;;0.74;100.00;100458.63;4991015;28;20038;-63
2023/02/07 09:33:56;;;;;;;17.45;9.95;;;;;;;0.75;100.00;100452.63;4977582;28;20053;-61
2023/02/07 09:36:27;;;;;;;15.35;9.48;;;;;;;0.81;100.00;100467.84;4967618;28;20042;-62
2023/02/07 09:38:53;;;;;;;16.13;9.90;;;;;;;0.67;100.00;100465.59;4967367;28;20040;-61
2023/02/07 09:41:52;;;;;;;14.85;10.07;;;;;;;0.75;100.00;100470.56;4963120;28;20046;-65
2023/02/07 09:44:45;;;;;;;16.10;10.05;;;;;;;0.76;100.00;100473.06;4981989;28;20482;-64
2023/02/07 09:47:24;;;;;;;17.75;10.43;;;;;;;0.70;100.00;100459.59;4983107;28;20456;-62
2023/02/07 09:50:20;;;;;;;20.33;10.52;;;;;;;0.80;100.00;100457.63;4979680;28;20022;-61
2023/02/07 09:52:52;;;;;;;19.35;11.20;;;;;;;0.83;100.00;100466.09;4982463;28;20034;-62
2023/02/07 09:55:22;;;;;;;18.23;11.40;;;;;;;0.64;99.36;100419.59;4982804;28;20568;-62
2023/02/07 09:57:52;;;;;;;15.73;10.18;;;;;;;0.85;99.25;100468.59;4962240;28;20046;-60
2023/02/07 10:00:28;;;;;;;17.20;10.57;;;;;;;0.84;98.14;100470.34;4964271;28;20534;-61
2023/02/07 10:02:58;;;;;;;16.52;9.20;;;;;;;0.76;98.11;100467.09;4983002;28;20117;-62
2023/02/07 10:05:39;;;;;;;13.35;8.50;;;;;;;0.90;98.48;100444.56;4975006;28;20113;-60
2023/02/07 10:08:04;;;;;;;13.98;9.10;;;;;;;0.73;96.04;100419.38;4966703;28;20493;-63
2023/02/07 10:10:47;;;;;;;14.82;8.65;;;;;;;0.98;92.39;100446.09;4979330;28;20038;-63
2023/02/07 10:13:28;;;;;;;13.75;7.22;;;;;;;0.88;89.08;100384.84;4966551;28;20031;-63
2023/02/07 10:16:15;;;;;;;15.05;7.28;;;;;;;1.42;90.23;100438.94;4967002;28;20038;-62
2023/02/07 10:18:48;;;;;;;11.38;7.22;;;;;;;1.44;87.56;100424.34;4955668;28;20038;-63
2023/02/07 10:21:27;;;;;;;11.02;6.88;;;;;;;1.71;85.87;100433.00;4971724;28;20114;-61
2023/02/07 10:24:01;;;;;;;11.23;6.15;;;;;;;1.81;84.35;100413.06;4965385;28;20122;-63
2023/02/07 10:26:38;;;;;;;11.55;6.47;;;;;;;2.00;81.60;100418.50;4969507;28;20034;-65
2023/02/07 10:29:41;;;;;;;11.60;6.07;;;;;;;2.09;80.68;100423.34;4951574;28;20066;-61
2023/02/07 10:32:34;;;;;;;9.45;5.88;;;;;;;2.13;79.03;100412.09;4968166;28;20035;-62
2023/02/07 10:35:03;;;;;;;10.60;5.72;;;;;;;2.14;79.60;100406.09;4965705;28;20041;-63
2023/02/07 10:37:30;;;;;;;;;;;;;;;2.24;81.33;100404.06;4976043;28;20031;-62
2023/02/07 10:40:05;;;;;;;9.35;5.20;;;;;;;2.28;80.64;100391.09;4950227;28;20000;-62
2023/02/07 10:42:32;;;;;;;12.55;6.30;;;;;;;2.42;80.78;100389.81;4967556;28;20030;-66
2023/02/07 10:44:58;;;;;;;10.38;5.72;;;;;;;2.42;79.95;100384.66;4984483;28;20081;-62
2023/02/07 10:47:25;;;;;;;11.95;6.38;;;;;;;2.50;80.19;100377.53;4967418;28;20710;-62
2023/02/07 10:49:52;;;;;;;12.70;6.32;;;;;;;2.59;80.69;100371.28;4959738;28;20049;-64
2023/02/07 10:52:20;;;;;;;10.27;5.95;;;;;;;2.30;80.15;100326.88;4974948;28;20042;-64
2023/02/07 10:54:55;;;;;;;11.02;6.35;;;;;;;2.58;78.96;100360.16;4966693;28;20048;-65
2023/02/07 10:57:21;;;;;;;8.90;5.18;;;;;;;2.72;73.02;100359.72;4975590;28;20026;-66
2023/02/07 10:59:47;;;;;;;10.85;7.03;;;;;;;2.88;73.68;100342.88;4964895;28;20484;-66
2023/02/07 11:02:36;;;;;;;9.00;6.18;;;;;;;2.94;72.15;100351.25;4955326;28;20251;-63
2023/02/07 11:05:16;;;;;;;11.32;5.97;;;;;;;2.96;72.40;100345.19;4965364;28;20045;-63
2023/02/07 11:08:13;;;;;;;11.13;6.32;;;;;;;2.89;71.53;100329.13;4968070;28;20034;-66
2023/02/07 11:10:41;;;;;;;11.35;6.15;;;;;;;3.04;70.53;100326.91;4968886;28;20104;-64
2023/02/07 11:13:16;;;;;;;9.88;6.18;;;;;;;3.06;68.76;100309.69;4980980;28;20826;-64
2023/02/07 11:15:57;;;;;;;10.10;6.50;;;;;;;3.13;69.34;100307.75;4975008;28;20031;-66
2023/02/07 11:18:36;;;;;;;9.73;5.43;;;;;;;3.14;69.05;100301.69;4973651;28;20034;-63
2023/02/07 11:21:23;;;;;;;9.75;5.28;;;;;;;3.21;67.04;100298.00;4967393;28;20043;-66
2023/02/07 11:23:50;;;;;;;8.98;5.50;;;;;;;3.31;68.49;100299.38;4961601;28;20478;-64
2023/02/07 11:26:17;;;;;;;10.13;6.22;;;;;;;3.36;66.34;100286.31;4958895;28;20686;-63
2023/02/07 11:28:43;;;;;;;9.98;5.70;;;;;;;3.25;66.92;100277.28;4951734;28;20666;-64